Página principal
METAR-TAF:

METAR-TAF

Aeroportos :

Bamako, Mali

Aeroporto Internacional Modibo Keita

latitude: 12-32N, longitude: 007-57W, altura: 380 m

Observação actual do tempo

O boletim foi feito há 22 minutos, às 23:00 UTC
Vento calmo
Temperatura 20°C
Humidade 46%
Pressão 1014 hPa
Visibilidade: 8000 m

METAR: GABS 122300Z 00000KT 8000 NSC 20/08 Q1014 NOSIG

Hora: 23:22 (23:22 UTC)

Previsão

O boletim foi feito há 6 horas e 17 minutos, às 17:05 UTC
Previsão válida de 12 às 18 UTC a 13 às 24 UTC
Vento 8 kt de oes-sudoeste
Visibilidade: 8000 m
Probabilidade 40% :
Temporariamente
de 12 às 18 UTC a 12 às 22 UTC
Visibilidade: 4000 m
bruma
Tornando-se
de 12 às 21 UTC a 12 às 23 UTC
Vento 10 kt de noroeste
Probabilidade 40% :
Temporariamente
de 13 às 06 UTC a 13 às 11 UTC
Visibilidade: 3000 m
poeira extensa

TAF: GABS 121705Z 1218/1324 24008KT 8000 NSC PROB40 TEMPO 1218/1222 4000 HZ BECMG 1221/1223 32010KT PROB40 TEMPO 1306/1311 3000 DU

Observações e previsões do tempo de mais de 4000 aeroportos (mensagens METAR e TAF).

As estações disponíveis são os pontos amarelos e vermelhos sobre o mapa.

Mova o rato sobre o mapa para ver o nome da estação.

Depois clique no ponto para visualizar as observações e previsões meteorológicas.

Para alterar o mapa : clique nos botões verdes com uma cruz preta para aumentar o zoom; no botão verde com uma pitada de zoom; ou nas setas verdes para mapas adjacentes.


METAR-TAF: